Time;durP1;ratioP1;P1;durP2;ratioP2;P2;SDS_P1;SDS_P2;PMS_P1;PMS_P2;Temp;Humidity;BMP_temperature;BMP_pressure;BME280_temperature;BME280_humidity;BME280_pressure;Samples;Min_cycle;Max_cycle;Signal;HPM_P1;HPM_P2
2023/01/15 00:03:40;;;;;;;3.33;0.65;;;;;;;20.35;43.37;99898.59;16132167;19;129559;-47
2023/01/15 00:09:03;;;;;;;3.92;0.68;;;;;;;20.34;43.16;99901.66;16133276;19;129500;-45
2023/01/15 00:14:24;;;;;;;1.48;0.40;;;;;;;20.31;42.98;99885.56;16130208;19;136915;-48
2023/01/15 00:19:46;;;;;;;1.92;0.40;;;;;;;20.27;42.94;99888.91;16128645;19;129351;-45
2023/01/15 00:31:08;;;;;;;2.50;0.75;;;;;;;20.19;42.83;99883.91;16119330;19;130673;-46
2023/01/15 00:36:30;;;;;;;1.27;0.40;;;;;;;20.18;42.88;99889.75;16117738;19;129650;-48
2023/01/15 00:41:53;;;;;;;1.13;0.50;;;;;;;20.14;42.94;99906.16;16118252;19;130830;-47
2023/01/15 00:47:15;;;;;;;3.75;0.70;;;;;;;20.13;42.73;99893.38;16121132;19;130756;-47
2023/01/15 00:52:37;;;;;;;1.13;0.55;;;;;;;20.10;43.20;99888.38;16117282;19;129313;-51
2023/01/15 00:57:59;;;;;;;3.25;0.50;;;;;;;20.07;42.81;99906.44;16117468;19;129218;-47
2023/01/15 01:03:22;;;;;;;2.17;0.50;;;;;;;20.06;43.24;99901.19;16122087;19;129883;-48
2023/01/15 01:08:47;;;;;;;2.03;0.57;;;;;;;20.03;42.91;99905.34;16125470;19;129649;-50
2023/01/15 01:14:10;;;;;;;1.10;0.40;;;;;;;19.99;42.62;99921.72;16125002;19;129298;-51
2023/01/15 01:19:32;;;;;;;2.03;0.50;;;;;;;19.98;43.06;99913.66;16125700;19;131108;-48
2023/01/15 01:24:53;;;;;;;1.17;0.40;;;;;;;19.94;42.59;99913.38;16124246;19;129450;-48
2023/01/15 01:30:15;;;;;;;2.55;0.38;;;;;;;19.92;42.92;99915.63;16123335;19;129112;-47
2023/01/15 01:35:37;;;;;;;1.13;0.40;;;;;;;19.89;42.62;99916.16;16125154;19;129736;-46
2023/01/15 01:40:59;;;;;;;1.50;0.40;;;;;;;19.88;42.88;99902.59;16128791;19;130820;-48
2023/01/15 01:46:21;;;;;;;1.48;0.45;;;;;;;19.86;42.80;99911.16;16126659;19;129604;-46
2023/01/15 01:51:51;;;;;;;1.95;0.30;;;;;;;19.85;42.73;99923.38;16127809;19;129722;-45
2023/01/15 01:57:15;;;;;;;1.15;0.32;;;;;;;19.82;42.53;99915.59;16122858;19;129428;-46
2023/01/15 02:02:38;;;;;;;1.35;0.40;;;;;;;19.81;42.83;99920.34;16125480;19;129791;-47
2023/01/15 02:08:00;;;;;;;1.13;0.30;;;;;;;19.78;42.51;99932.00;16128429;19;130995;-46
2023/01/15 02:13:37;;;;;;;1.02;0.40;;;;;;;19.78;42.48;99922.84;16122156;19;129791;-46
2023/01/15 02:19:28;;;;;;;1.67;0.40;;;;;;;19.75;42.23;99906.75;16122556;19;129005;-46
2023/01/15 02:25:23;;;;;;;1.83;0.40;;;;;;;19.74;42.17;99914.25;16119617;19;131832;-45
2023/01/15 02:30:52;;;;;;;3.65;0.55;;;;;;;19.69;42.42;99901.19;16121583;19;129690;-46
2023/01/15 02:36:17;;;;;;;1.13;0.43;;;;;;;19.67;41.94;99892.34;16119084;19;129568;-48
2023/01/15 02:41:45;;;;;;;1.40;0.50;;;;;;;19.65;42.21;99893.69;16133805;19;129564;-47
2023/01/15 02:47:10;;;;;;;1.23;0.35;;;;;;;19.64;42.30;99887.34;16136839;19;129096;-51
2023/01/15 02:52:37;;;;;;;2.30;0.60;;;;;;;19.64;41.77;99898.44;16133708;19;129114;-59
2023/01/15 02:58:04;;;;;;;1.38;0.40;;;;;;;19.60;42.03;99907.59;16135991;19;129995;-54
2023/01/15 03:03:48;;;;;;;2.97;0.60;;;;;;;19.59;41.79;99903.97;16134953;19;130214;-58
2023/01/15 03:09:11;;;;;;;0.98;0.28;;;;;;;19.55;41.88;99905.66;16132143;19;129956;-60
2023/01/15 03:14:41;;;;;;;1.50;0.50;;;;;;;19.56;41.83;99896.22;16134763;19;130125;-61
2023/01/15 03:20:22;;;;;;;3.25;0.70;;;;;;;19.53;42.29;99882.91;16135338;19;129629;-59
2023/01/15 03:25:48;;;;;;;1.55;0.60;;;;;;;19.51;42.00;99888.72;16142851;19;130809;-54
2023/01/15 03:31:10;;;;;;;2.45;0.57;;;;;;;19.49;42.10;99892.88;16142581;19;130271;-51
2023/01/15 03:36:33;;;;;;;1.30;0.40;;;;;;;19.47;42.00;99898.72;16142591;19;129675;-55
2023/01/15 03:42:22;;;;;;;1.20;0.47;;;;;;;19.48;42.16;99902.31;16143017;19;131211;-57
2023/01/15 03:48:01;;;;;;;3.33;0.68;;;;;;;19.46;41.65;99898.97;16143033;19;129317;-53
2023/01/15 03:53:32;;;;;;;3.47;0.60;;;;;;;19.44;42.00;99895.66;16144308;19;130673;-53
2023/01/15 03:59:16;;;;;;;1.85;0.40;;;;;;;19.44;41.84;99892.91;16173797;19;129256;-49
2023/01/15 04:04:39;;;;;;;2.05;0.50;;;;;;;19.40;42.08;99902.88;16174213;19;129545;-52
2023/01/15 04:10:02;;;;;;;1.88;0.57;;;;;;;19.38;41.78;99903.16;16174308;19;129675;-55
2023/01/15 04:15:24;;;;;;;2.42;0.55;;;;;;;19.35;42.02;99887.88;16172490;19;129478;-53
2023/01/15 04:20:46;;;;;;;1.75;0.50;;;;;;;19.35;41.86;99895.38;16172032;19;129097;-50
2023/01/15 04:26:08;;;;;;;1.50;0.45;;;;;;;19.32;41.84;99893.97;16170039;19;128766;-53
2023/01/15 04:31:32;;;;;;;2.38;0.63;;;;;;;19.32;41.62;99899.50;16164446;19;131054;-50
2023/01/15 04:36:55;;;;;;;2.53;0.55;;;;;;;19.30;41.76;99899.00;16162139;19;129048;-50
2023/01/15 04:47:57;;;;;;;1.60;0.52;;;;;;;19.24;41.58;99919.47;16144768;19;129777;-47
2023/01/15 04:53:19;;;;;;;1.38;0.43;;;;;;;19.25;41.38;99903.69;16128715;19;130735;-47
2023/01/15 04:58:40;;;;;;;4.22;0.40;;;;;;;19.23;41.64;99903.94;16161935;19;129120;-50
2023/01/15 05:04:03;;;;;;;2.33;0.60;;;;;;;19.22;41.39;99908.69;16166155;19;130087;-49
2023/01/15 05:09:25;;;;;;;2.03;0.52;;;;;;;19.20;41.30;99893.41;16141352;19;133387;-52
2023/01/15 05:14:46;;;;;;;2.58;0.52;;;;;;;19.18;41.17;99895.63;16126802;19;129520;-46
2023/01/15 05:20:09;;;;;;;2.05;0.60;;;;;;;19.17;40.90;99903.09;16129658;19;129554;-47
2023/01/15 05:25:31;;;;;;;3.72;0.77;;;;;;;19.15;41.12;99885.06;16127681;19;130552;-47
2023/01/15 05:30:52;;;;;;;3.13;0.70;;;;;;;19.14;40.81;99911.13;16127378;19;129814;-48
2023/01/15 05:36:21;;;;;;;1.85;0.43;;;;;;;19.12;41.14;99897.56;16126862;19;131947;-47
2023/01/15 05:41:48;;;;;;;1.45;0.60;;;;;;;19.10;40.74;99896.13;16126819;19;129091;-45
2023/01/15 05:47:10;;;;;;;1.92;0.55;;;;;;;19.08;41.03;99874.25;16126297;19;129656;-49
2023/01/15 05:52:32;;;;;;;1.20;0.32;;;;;;;19.07;40.67;99878.97;16125635;19;130649;-45
2023/01/15 05:57:53;;;;;;;2.38;0.50;;;;;;;19.06;40.74;99888.41;16125474;19;130295;-46
2023/01/15 06:03:15;;;;;;;2.53;0.65;;;;;;;19.04;40.53;99896.16;16121009;19;130813;-47
2023/01/15 06:08:37;;;;;;;2.33;0.52;;;;;;;19.03;40.72;99910.25;16125043;19;129846;-48
2023/01/15 06:13:59;;;;;;;1.45;0.40;;;;;;;19.02;40.69;99917.75;16124864;19;129627;-48
2023/01/15 06:19:21;;;;;;;2.25;0.55;;;;;;;19.02;40.26;99923.31;16136810;19;130838;-46
2023/01/15 06:24:43;;;;;;;1.70;0.50;;;;;;;19.00;40.70;99936.59;16137814;19;129280;-49
2023/01/15 06:30:06;;;;;;;1.98;0.63;;;;;;;18.98;40.59;99949.88;16136492;19;130041;-46
2023/01/15 06:35:27;;;;;;;2.72;0.80;;;;;;;18.97;40.17;99945.44;16134774;19;129422;-46
2023/01/15 06:40:49;;;;;;;1.05;0.30;;;;;;;18.99;40.57;99951.56;16136701;19;130611;-47
2023/01/15 06:51:53;;;;;;;3.50;0.60;;;;;;;19.68;39.83;99941.16;16133702;19;128871;-46
2023/01/15 06:57:15;;;;;;;3.42;0.47;;;;;;;20.09;39.28;99953.34;16133802;19;131744;-46
2023/01/15 07:02:40;;;;;;;2.85;0.60;;;;;;;20.33;38.99;99966.63;16135535;19;129670;-48
2023/01/15 07:08:01;;;;;;;1.27;0.30;;;;;;;20.41;38.80;99988.31;16136043;19;129777;-46
2023/01/15 07:13:23;;;;;;;1.70;0.40;;;;;;;20.42;38.77;99987.19;16133996;19;129435;-46
2023/01/15 07:18:45;;;;;;;1.50;0.50;;;;;;;20.38;38.53;99973.00;16134940;19;129912;-47
2023/01/15 07:24:07;;;;;;;1.52;0.50;;;;;;;20.32;38.60;99984.41;16132922;19;129792;-48
2023/01/15 07:29:29;;;;;;;2.25;0.43;;;;;;;20.23;38.78;100004.44;16132688;19;129114;-49
2023/01/15 07:34:52;;;;;;;3.38;0.80;;;;;;;20.16;38.51;99991.94;16130238;19;129682;-49
2023/01/15 07:40:13;;;;;;;1.15;0.35;;;;;;;20.07;38.79;99989.75;16132545;19;129491;-46
2023/01/15 07:51:18;;;;;;;1.45;0.50;;;;;;;19.90;38.68;99998.34;16130510;19;131912;-47
2023/01/15 07:56:40;;;;;;;2.67;0.40;;;;;;;19.81;38.98;100013.88;16132893;19;129744;-49
2023/01/15 08:02:02;;;;;;;1.02;0.30;;;;;;;19.73;39.09;100015.25;16130788;19;129587;-46
2023/01/15 08:07:25;;;;;;;6.18;0.50;;;;;;;19.64;38.78;100012.19;16133074;19;129714;-46
2023/01/15 08:18:29;;;;;;;2.28;0.60;;;;;;;19.50;38.86;100024.91;16129423;19;130243;-50
2023/01/15 08:23:50;;;;;;;3.33;0.50;;;;;;;19.44;39.07;100031.59;16130118;19;130112;-51
2023/01/15 08:29:13;;;;;;;2.83;0.57;;;;;;;19.42;38.66;100033.78;16131820;19;129749;-47
2023/01/15 08:34:34;;;;;;;6.68;0.68;;;;;;;19.36;38.78;100019.91;16127139;19;129349;-48
2023/01/15 08:39:56;;;;;;;2.97;0.52;;;;;;;19.32;38.50;100004.09;16120244;19;130682;-46
2023/01/15 08:45:18;;;;;;;6.80;0.65;;;;;;;19.34;38.42;99999.91;16116294;19;129880;-51
2023/01/15 08:50:40;;;;;;;5.00;0.75;;;;;;;19.37;38.33;100004.94;16121192;19;129740;-52
2023/01/15 08:56:01;;;;;;;7.20;1.05;;;;;;;19.38;37.53;99997.47;16144896;19;129623;-54
2023/01/15 09:01:23;;;;;;;3.80;0.90;;;;;;;19.41;38.01;99998.84;16138501;19;130832;-49
2023/01/15 09:06:46;;;;;;;9.43;0.80;;;;;;;19.47;37.99;100017.13;16157232;19;129697;-53
2023/01/15 09:12:08;;;;;;;12.77;1.42;;;;;;;19.51;37.48;99993.31;16177241;19;128912;-52
2023/01/15 09:17:31;;;;;;;9.57;1.00;;;;;;;19.53;37.46;99991.09;16168333;19;129001;-48
2023/01/15 09:22:54;;;;;;;3.70;0.85;;;;;;;19.56;37.46;99998.03;16170025;19;129147;-51
2023/01/15 09:28:15;;;;;;;6.25;1.05;;;;;;;19.57;37.00;99996.91;16164447;19;128971;-52
2023/01/15 09:33:37;;;;;;;11.15;1.10;;;;;;;19.54;36.90;100012.19;16158739;19;128652;-52
2023/01/15 09:39:00;;;;;;;12.55;1.42;;;;;;;19.53;36.71;100024.38;16150915;19;129278;-53
2023/01/15 09:44:35;;;;;;;6.13;1.13;;;;;;;19.52;36.48;100023.53;16151459;19;129259;-51
2023/01/15 09:50:46;;;;;;;7.43;1.10;;;;;;;19.48;36.35;100041.00;16144500;19;129628;-52
2023/01/15 09:56:31;;;;;;;2.92;0.80;;;;;;;19.42;34.75;100042.94;16164111;19;129099;-52
2023/01/15 10:01:54;;;;;;;7.75;1.35;;;;;;;19.46;34.50;100055.16;16155322;19;130054;-52
2023/01/15 10:07:33;;;;;;;4.72;1.40;;;;;;;19.57;33.48;100036.56;16152793;19;130085;-53
2023/01/15 10:13:05;;;;;;;13.30;1.27;;;;;;;19.68;33.42;100052.16;16155377;19;129633;-53
2023/01/15 10:18:28;;;;;;;16.25;1.73;;;;;;;19.75;32.97;100068.56;16160873;19;129138;-51
2023/01/15 10:24:01;;;;;;;13.48;1.10;;;;;;;19.81;33.02;100074.94;16164346;19;130893;-53
2023/01/15 10:29:26;;;;;;;16.40;1.65;;;;;;;19.85;33.05;100081.59;16164557;19;131066;-55
2023/01/15 10:35:07;;;;;;;12.52;1.17;;;;;;;19.84;33.11;100072.44;16163298;19;129950;-51
2023/01/15 10:40:45;;;;;;;17.10;1.70;;;;;;;19.84;34.03;100053.00;16153239;19;129664;-52
2023/01/15 10:46:13;;;;;;;9.05;1.48;;;;;;;19.78;33.88;100067.97;16155895;19;129386;-53
2023/01/15 10:51:49;;;;;;;18.10;2.05;;;;;;;19.71;34.40;100059.09;16151596;19;128868;-54
2023/01/15 10:57:22;;;;;;;11.85;1.15;;;;;;;19.66;33.72;100064.63;16149877;19;129511;-50
2023/01/15 11:02:49;;;;;;;6.30;1.15;;;;;;;19.68;34.01;100059.63;16162158;19;130122;-52
2023/01/15 11:08:32;;;;;;;4.90;0.88;;;;;;;19.75;33.06;100059.38;16170429;19;130005;-53
2023/01/15 11:19:54;;;;;;;4.90;0.80;;;;;;;19.85;33.27;100042.72;16171361;19;129609;-52
2023/01/15 11:25:30;;;;;;;6.55;1.05;;;;;;;19.97;33.16;100057.16;16168293;19;129282;-53
2023/01/15 11:30:54;;;;;;;10.00;1.10;;;;;;;20.04;33.28;100045.00;16166976;19;129343;-52
2023/01/15 11:36:23;;;;;;;10.30;1.08;;;;;;;20.10;33.22;100038.31;16153827;19;130332;-52
2023/01/15 11:53:18;;;;;;;11.00;1.00;;;;;;;20.17;33.54;100038.91;16126984;19;129640;-48
2023/01/15 11:58:49;;;;;;;7.90;1.00;;;;;;;20.17;33.30;100036.13;16132747;19;130432;-48
2023/01/15 12:04:43;;;;;;;8.23;0.73;;;;;;;20.09;33.10;100043.06;16128569;19;130075;-48
2023/01/15 12:16:52;;;;;;;14.23;0.90;;;;;;;19.99;33.48;100030.00;16127870;19;129501;-52
2023/01/15 12:23:01;;;;;;;13.68;1.10;;;;;;;19.90;33.66;100023.31;16127103;19;129648;-49
2023/01/15 12:28:31;;;;;;;7.18;1.05;;;;;;;19.85;33.82;100031.63;16128430;19;130566;-49
2023/01/15 12:34:02;;;;;;;5.70;1.13;;;;;;;19.79;33.99;100027.19;16125635;19;129560;-48
2023/01/15 12:39:30;;;;;;;3.33;0.90;;;;;;;19.74;33.84;100032.72;16127335;19;130824;-48
2023/01/15 12:45:06;;;;;;;7.32;0.80;;;;;;;19.65;33.70;100027.72;16126690;19;129435;-49
2023/01/15 12:50:43;;;;;;;5.75;1.17;;;;;;;19.60;34.28;100018.56;16126726;19;129860;-49
2023/01/15 12:56:08;;;;;;;6.03;1.17;;;;;;;19.54;34.21;100014.97;16125280;19;129783;-47
2023/01/15 13:01:37;;;;;;;8.18;1.13;;;;;;;19.49;34.06;100029.66;16124251;19;129505;-50
2023/01/15 13:07:21;;;;;;;2.88;0.75;;;;;;;19.43;34.10;100016.88;16120153;19;130376;-50
2023/01/15 13:12:43;;;;;;;5.97;1.08;;;;;;;19.37;33.59;100020.75;16123491;19;129284;-50
2023/01/15 13:18:20;;;;;;;8.95;1.35;;;;;;;19.31;33.25;100008.81;16124081;19;134552;-49
2023/01/15 13:23:48;;;;;;;6.45;0.77;;;;;;;19.25;33.42;100007.13;16124563;19;130436;-48
2023/01/15 13:29:25;;;;;;;4.65;1.10;;;;;;;19.18;33.24;100020.38;16121924;19;129534;-48
2023/01/15 13:35:17;;;;;;;7.85;1.00;;;;;;;19.12;33.19;100024.22;16124629;19;129547;-48
2023/01/15 13:40:49;;;;;;;5.70;1.30;;;;;;;19.13;32.63;100035.06;16119102;19;129499;-49
2023/01/15 13:46:18;;;;;;;4.78;1.10;;;;;;;19.20;32.10;100038.41;16122350;19;129456;-47
2023/01/15 13:51:42;;;;;;;9.43;1.48;;;;;;;19.32;32.33;100043.72;16123369;19;130047;-46
2023/01/15 13:57:34;;;;;;;19.80;1.70;;;;;;;19.44;31.36;100037.94;16114723;19;129868;-51
2023/01/15 14:02:58;;;;;;;17.17;1.40;;;;;;;19.52;31.62;100044.91;16111417;19;129377;-51
2023/01/15 14:08:25;;;;;;;10.27;1.20;;;;;;;19.57;31.66;100044.09;16114008;19;129888;-50
2023/01/15 14:14:05;;;;;;;6.30;1.40;;;;;;;19.57;31.52;100058.78;16115804;19;129707;-50
2023/01/15 14:19:55;;;;;;;18.73;1.30;;;;;;;19.56;31.03;100056.28;16115610;19;130303;-50
2023/01/15 14:25:39;;;;;;;13.00;1.17;;;;;;;19.52;31.83;100053.22;16118900;19;129493;-52
2023/01/15 14:31:34;;;;;;;10.07;1.60;;;;;;;19.45;31.75;100061.81;16120441;19;130683;-51
2023/01/15 14:37:00;;;;;;;9.90;1.30;;;;;;;19.37;31.51;100068.72;16128670;19;129601;-49
2023/01/15 14:48:26;;;;;;;11.50;1.40;;;;;;;19.31;31.45;100058.72;16134163;19;130295;-52
2023/01/15 14:54:03;;;;;;;6.07;1.08;;;;;;;19.25;31.52;100079.22;16130690;19;129537;-47
2023/01/15 14:59:41;;;;;;;8.20;0.90;;;;;;;19.20;31.76;100087.50;16130509;19;131210;-48
2023/01/15 15:05:09;;;;;;;26.45;2.22;;;;;;;19.17;32.16;100082.47;16129235;19;129493;-50
2023/01/15 15:10:38;;;;;;;10.38;0.90;;;;;;;19.13;32.00;100095.22;16126482;19;129054;-50
2023/01/15 15:16:21;;;;;;;10.95;1.27;;;;;;;19.10;32.41;100090.19;16128955;19;130942;-49
2023/01/15 15:21:46;;;;;;;16.65;1.25;;;;;;;19.06;32.24;100098.22;16126832;19;129746;-51
2023/01/15 15:27:20;;;;;;;13.27;1.20;;;;;;;19.05;32.23;100091.00;16130725;19;130454;-47
2023/01/15 15:32:43;;;;;;;11.80;1.48;;;;;;;19.01;32.62;100101.81;16128560;19;129909;-47
2023/01/15 15:38:05;;;;;;;23.48;1.50;;;;;;;18.95;32.50;100079.88;16130006;19;130071;-47
2023/01/15 15:49:19;;;;;;;11.70;1.35;;;;;;;18.95;32.85;100082.66;16123136;19;130640;-50
2023/01/15 15:54:40;;;;;;;20.40;2.05;;;;;;;18.93;33.05;100088.47;15975600;19;2969896;-47
2023/01/15 16:00:03;;;;;;;8.68;1.60;;;;;;;18.92;33.43;100092.34;16129607;19;130061;-48
2023/01/15 16:05:31;;;;;;;13.65;1.73;;;;;;;18.94;33.26;100092.91;16131301;19;133039;-48
2023/01/15 16:10:58;;;;;;;11.65;1.40;;;;;;;18.94;33.76;100094.84;16125806;19;129564;-49
2023/01/15 16:16:20;;;;;;;5.32;0.90;;;;;;;18.88;33.58;100072.66;16110436;19;134868;-50
2023/01/15 16:21:43;;;;;;;9.05;1.20;;;;;;;18.84;33.61;100063.19;16086974;19;130382;-50
2023/01/15 16:27:15;;;;;;;8.32;1.38;;;;;;;18.81;33.67;100063.72;16128949;19;134867;-49
2023/01/15 16:32:38;;;;;;;11.27;1.30;;;;;;;18.79;33.98;100068.69;16126771;19;130457;-55
2023/01/15 16:38:01;;;;;;;8.40;0.90;;;;;;;18.89;33.31;100076.25;16127190;19;134711;-53
2023/01/15 16:43:25;;;;;;;10.52;1.20;;;;;;;19.05;33.40;100064.13;16125686;19;129857;-49
2023/01/15 16:48:47;;;;;;;15.07;2.05;;;;;;;19.20;32.89;100062.53;16125188;19;130260;-51
2023/01/15 16:54:40;;;;;;;15.40;2.30;;;;;;;19.37;32.71;100070.66;16125919;19;130967;-49
2023/01/15 17:00:05;;;;;;;15.38;1.90;;;;;;;19.50;32.59;100070.16;16123375;19;130390;-52
2023/01/15 17:05:28;;;;;;;8.77;1.55;;;;;;;19.62;32.94;100067.13;16126883;19;130943;-50
2023/01/15 17:10:52;;;;;;;9.95;1.95;;;;;;;19.68;32.49;100073.50;16127722;19;129568;-54
2023/01/15 17:16:22;;;;;;;12.52;1.40;;;;;;;19.69;32.28;100067.69;16124872;19;129630;-54
2023/01/15 17:21:46;;;;;;;10.88;1.58;;;;;;;19.65;32.83;100077.69;16129435;19;129711;-50
2023/01/15 17:27:08;;;;;;;9.15;1.10;;;;;;;19.60;32.50;100063.78;16126601;19;129717;-53
2023/01/15 17:32:34;;;;;;;4.95;1.10;;;;;;;19.53;32.66;100052.94;16126659;19;130200;-53
2023/01/15 17:37:56;;;;;;;5.40;1.30;;;;;;;19.48;32.65;100046.56;16123021;19;130620;-53
2023/01/15 17:43:18;;;;;;;5.07;1.40;;;;;;;19.42;32.98;100047.66;16123933;19;129721;-49
2023/01/15 17:48:40;;;;;;;7.93;1.88;;;;;;;19.39;32.94;100046.25;16122267;19;129309;-59
2023/01/15 17:54:02;;;;;;;7.95;3.00;;;;;;;19.52;33.21;100044.91;16122852;19;129805;-58
2023/01/15 18:10:45;;;;;;;13.05;4.40;;;;;;;20.76;32.37;100039.38;16120394;19;129982;-60
2023/01/15 18:16:08;;;;;;;11.05;4.00;;;;;;;20.99;32.23;100037.06;16074819;19;130491;-58
2023/01/15 18:21:30;;;;;;;12.70;4.47;;;;;;;21.05;32.04;100008.09;16078574;19;131028;-59
2023/01/15 18:26:52;;;;;;;11.60;4.28;;;;;;;21.02;32.14;99990.06;16116966;19;129637;-62
2023/01/15 18:32:14;;;;;;;14.10;4.10;;;;;;;20.94;32.66;99995.38;16122414;19;129522;-56
2023/01/15 18:37:35;;;;;;;12.38;4.13;;;;;;;20.82;33.32;99984.59;16121753;19;130924;-57
2023/01/15 18:48:38;;;;;;;11.73;3.47;;;;;;;20.61;34.51;99965.19;16123953;19;129476;-59
2023/01/15 18:54:00;;;;;;;16.33;3.90;;;;;;;20.48;35.09;99966.59;16122711;19;130868;-60
2023/01/15 18:59:21;;;;;;;10.93;3.85;;;;;;;20.42;36.02;99967.75;16121593;19;129577;-56
2023/01/15 19:04:44;;;;;;;8.18;2.97;;;;;;;20.46;36.96;99954.94;16132277;19;129723;-51
2023/01/15 19:10:06;;;;;;;7.25;3.13;;;;;;;20.59;37.39;99940.44;16115053;19;129988;-63
2023/01/15 19:21:10;;;;;;;9.60;2.20;;;;;;;21.19;37.42;99925.72;16127697;19;129717;-59
2023/01/15 19:26:33;;;;;;;7.47;2.15;;;;;;;21.33;37.70;99922.28;16136450;19;129272;-58
2023/01/15 19:31:55;;;;;;;4.65;1.70;;;;;;;21.40;37.67;99919.19;16134445;19;129490;-54
2023/01/15 19:37:18;;;;;;;5.07;1.83;;;;;;;21.48;37.51;99924.97;16125204;19;130590;-58
2023/01/15 19:54:01;;;;;;;2.10;1.30;;;;;;;22.02;36.99;99879.69;16114789;19;130301;-63
2023/01/15 19:59:25;;;;;;;3.30;1.10;;;;;;;22.15;36.77;99862.25;16117354;19;133569;-64
2023/01/15 20:04:47;;;;;;;5.43;1.10;;;;;;;22.25;36.51;99867.75;16118348;19;130845;-64
2023/01/15 20:10:13;;;;;;;7.22;1.33;;;;;;;22.33;36.33;99855.13;16125876;19;130387;-62
2023/01/15 20:15:37;;;;;;;3.70;1.40;;;;;;;22.34;36.74;99851.19;16118167;19;130914;-63
2023/01/15 20:20:58;;;;;;;3.00;1.10;;;;;;;22.33;36.29;99835.59;16114613;19;129580;-65
2023/01/15 20:26:23;;;;;;;21.80;2.00;;;;;;;22.27;36.45;99808.97;16118438;19;130701;-61
2023/01/15 20:31:45;;;;;;;4.37;1.00;;;;;;;22.17;36.41;99795.09;16122409;19;132393;-62
2023/01/15 20:37:06;;;;;;;3.75;0.85;;;;;;;22.07;36.60;99782.16;16126555;19;129994;-61
2023/01/15 20:53:34;;;;;;;6.93;0.83;;;;;;;21.79;36.40;99754.91;16126694;19;129502;-60
2023/01/15 20:58:57;;;;;;;10.07;1.25;;;;;;;21.70;36.67;99751.13;16135183;19;129552;-60
2023/01/15 21:04:18;;;;;;;9.18;1.33;;;;;;;21.63;36.20;99739.50;16136284;19;129505;-60
2023/01/15 21:09:40;;;;;;;14.98;1.35;;;;;;;21.53;36.23;99734.88;16131569;19;129646;-61
2023/01/15 21:15:03;;;;;;;7.68;1.10;;;;;;;21.45;36.57;99719.63;16130783;19;129563;-60
2023/01/15 21:20:25;;;;;;;4.50;0.98;;;;;;;21.37;36.80;99709.97;16130219;19;133631;-59
2023/01/15 21:25:47;;;;;;;4.85;0.93;;;;;;;21.33;36.94;99713.63;16128710;19;129384;-58
2023/01/15 21:31:10;;;;;;;6.70;1.00;;;;;;;21.28;36.87;99708.16;16130194;19;129713;-59
2023/01/15 21:36:32;;;;;;;5.30;1.00;;;;;;;21.18;36.53;99695.16;16124008;19;130171;-59
2023/01/15 21:47:35;;;;;;;4.72;0.93;;;;;;;21.00;35.93;99696.72;16119271;19;129916;-56
2023/01/15 21:52:57;;;;;;;4.88;1.00;;;;;;;20.87;36.00;99678.75;16124275;19;130221;-52
2023/01/15 21:58:19;;;;;;;3.10;0.75;;;;;;;20.81;36.19;99675.19;16122591;19;130231;-50
2023/01/15 22:03:40;;;;;;;14.70;1.25;;;;;;;20.75;35.86;99671.63;16123685;19;131328;-52
2023/01/15 22:09:03;;;;;;;3.13;0.80;;;;;;;20.68;35.82;99675.84;16124440;19;129608;-52
2023/01/15 22:14:27;;;;;;;13.32;0.95;;;;;;;20.59;35.85;99676.47;16125244;19;134007;-47
2023/01/15 22:19:50;;;;;;;13.15;1.20;;;;;;;20.53;35.95;99685.97;16120469;19;130431;-48
2023/01/15 22:25:14;;;;;;;10.38;0.65;;;;;;;20.46;36.39;99685.47;16120961;19;130002;-45
2023/01/15 22:30:37;;;;;;;7.38;1.05;;;;;;;20.38;36.43;99683.31;16125233;19;129203;-47
2023/01/15 22:35:59;;;;;;;7.18;0.82;;;;;;;20.29;36.55;99686.72;16123162;19;129381;-46
2023/01/15 22:47:01;;;;;;;9.48;0.90;;;;;;;20.17;36.38;99665.94;16120623;19;129366;-48
2023/01/15 22:52:24;;;;;;;7.55;0.88;;;;;;;20.11;36.32;99670.72;16119345;19;129901;-49
2023/01/15 22:57:46;;;;;;;2.70;0.40;;;;;;;20.05;36.91;99656.03;16127488;19;129635;-48
2023/01/15 23:03:08;;;;;;;4.00;0.93;;;;;;;19.99;37.00;99648.84;16133483;19;129994;-51
2023/01/15 23:08:31;;;;;;;4.10;0.60;;;;;;;19.94;36.60;99641.34;16133839;19;130852;-49
2023/01/15 23:13:53;;;;;;;2.42;0.40;;;;;;;19.89;37.10;99630.28;16133445;19;129357;-47
2023/01/15 23:19:16;;;;;;;5.07;0.60;;;;;;;19.84;37.00;99630.28;16132746;19;130583;-49
2023/01/15 23:24:37;;;;;;;1.98;0.40;;;;;;;19.80;37.26;99609.81;16134270;19;130175;-47
2023/01/15 23:29:59;;;;;;;2.47;0.60;;;;;;;19.75;37.08;99616.22;16132656;19;129832;-51
2023/01/15 23:35:21;;;;;;;1.55;0.30;;;;;;;19.73;37.02;99595.41;16131369;19;129223;-46
2023/01/15 23:40:43;;;;;;;2.97;0.50;;;;;;;19.66;37.11;99596.56;16133408;19;130397;-46
2023/01/15 23:52:02;;;;;;;4.68;0.60;;;;;;;19.58;36.84;99565.81;16132906;19;131021;-47
2023/01/15 23:57:24;;;;;;;1.17;0.40;;;;;;;19.55;37.27;99571.91;16130622;19;130197;-47
